createdAt,value
2022-11-04T00:03:22.707Z,99225.41
2022-11-04T00:08:26.280Z,99225.06
2022-11-04T00:13:29.696Z,99218.19
2022-11-04T00:18:31.869Z,99224.25
2022-11-04T00:23:50.222Z,99222.00
2022-11-04T00:28:53.001Z,99216.69
2022-11-04T00:33:56.900Z,99206.56
2022-11-04T00:38:57.879Z,99200.66
2022-11-04T00:44:00.498Z,99202.97
2022-11-04T00:49:02.665Z,99196.13
2022-11-04T00:54:03.465Z,99200.38
2022-11-04T00:59:04.601Z,99208.31
2022-11-04T01:04:06.822Z,99202.28
2022-11-04T01:09:10.000Z,99200.84
2022-11-04T01:14:10.957Z,99206.34
2022-11-04T01:19:13.431Z,99194.16
2022-11-04T01:24:14.246Z,99188.97
2022-11-04T01:29:15.129Z,99187.69
2022-11-04T01:34:17.300Z,99187.50
2022-11-04T01:39:18.102Z,99179.03
2022-11-04T01:44:47.696Z,99171.00
2022-11-04T01:49:53.576Z,99169.25
2022-11-04T01:54:57.309Z,99167.41
2022-11-04T02:00:02.398Z,99163.66
2022-11-04T02:05:14.260Z,99148.44
2022-11-04T02:10:15.220Z,99134.06
2022-11-04T02:15:16.210Z,99142.09
2022-11-04T02:20:41.748Z,99154.75
2022-11-04T02:26:10.402Z,99156.44
2022-11-04T02:31:19.082Z,99160.44
2022-11-04T02:36:26.338Z,99178.91
2022-11-04T02:41:37.298Z,99194.84
2022-11-04T02:46:47.169Z,99184.13
2022-11-04T02:51:52.626Z,99168.97
2022-11-04T02:56:57.239Z,99178.84
2022-11-04T03:02:02.315Z,99173.28
2022-11-04T03:07:07.255Z,99274.91
2022-11-04T03:12:14.961Z,99253.78
2022-11-04T03:17:23.510Z,99276.34
2022-11-04T03:22:28.153Z,99290.03
2022-11-04T03:27:36.264Z,99282.09
2022-11-04T03:32:44.872Z,99275.34
2022-11-04T03:37:48.528Z,99264.31
2022-11-04T03:42:57.045Z,99262.44
2022-11-04T03:47:59.498Z,99265.88
2022-11-04T03:53:01.434Z,99247.06
2022-11-04T03:58:09.570Z,99262.16
2022-11-04T04:03:18.982Z,99263.00
2022-11-04T04:08:33.020Z,99259.69
2022-11-04T04:13:40.024Z,99262.22
2022-11-04T04:18:52.620Z,99249.97
2022-11-04T04:24:18.906Z,99266.28
2022-11-04T04:29:21.182Z,99275.59
2022-11-04T04:34:25.381Z,99277.94
2022-11-04T04:39:46.574Z,99283.34
2022-11-04T04:45:03.347Z,99283.13
2022-11-04T04:50:06.856Z,99280.53
2022-11-04T04:55:08.771Z,99280.59
2022-11-04T05:00:13.364Z,99286.50
2022-11-04T05:10:21.559Z,99281.28
2022-11-04T05:15:22.394Z,99287.25
2022-11-04T05:20:25.694Z,99283.75
2022-11-04T05:25:26.581Z,99278.56
2022-11-04T05:30:27.549Z,99295.34
2022-11-04T05:35:29.758Z,99294.22
2022-11-04T05:40:30.566Z,99295.41
2022-11-04T05:45:31.543Z,99295.03
2022-11-04T05:50:34.916Z,99292.59
2022-11-04T05:55:35.718Z,99292.28
2022-11-04T06:00:36.533Z,99288.28
2022-11-04T06:05:38.800Z,99302.72
2022-11-04T06:10:39.578Z,99306.31
2022-11-04T06:15:40.367Z,99313.59
2022-11-04T06:20:42.490Z,99302.50
2022-11-04T06:25:43.335Z,99310.16
2022-11-04T06:30:44.241Z,99313.75
2022-11-04T06:35:46.374Z,99319.72
2022-11-04T06:40:47.194Z,99308.34
2022-11-04T06:45:54.391Z,99308.06
2022-11-04T06:50:56.565Z,99314.53
2022-11-04T06:56:04.022Z,99298.59
2022-11-04T07:01:11.120Z,99294.91
2022-11-04T07:06:15.819Z,99292.72
2022-11-04T07:11:17.128Z,99293.78
2022-11-04T07:16:19.066Z,99290.28
2022-11-04T07:21:21.238Z,99296.91
2022-11-04T07:26:22.683Z,99294.78
2022-11-04T07:31:23.524Z,99303.84
2022-11-04T07:36:25.705Z,99305.13
2022-11-04T07:41:26.513Z,99316.50
2022-11-04T07:46:27.625Z,99328.16
2022-11-04T07:51:32.280Z,99338.41
2022-11-04T07:56:33.112Z,99326.53
2022-11-04T08:01:34.483Z,99347.13
2022-11-04T08:06:36.682Z,99357.25
2022-11-04T08:11:37.543Z,99350.59
2022-11-04T08:16:38.392Z,99338.63
2022-11-04T08:21:40.568Z,99341.31
2022-11-04T08:26:42.244Z,99333.19
2022-11-04T08:31:43.409Z,99327.03
2022-11-04T08:36:46.561Z,99312.78
2022-11-04T08:41:48.125Z,99311.06
2022-11-04T08:46:49.810Z,99302.91
2022-11-04T08:51:56.799Z,99322.50
2022-11-04T08:56:57.795Z,99309.97
2022-11-04T09:01:58.689Z,99296.28
2022-11-04T09:07:07.849Z,99274.94
2022-11-04T09:12:10.964Z,99282.22
2022-11-04T09:17:11.887Z,99293.16
2022-11-04T09:22:14.105Z,99311.78
2022-11-04T09:27:15.191Z,99313.75
2022-11-04T09:32:16.132Z,99306.16
2022-11-04T09:37:18.333Z,99307.31
2022-11-04T09:42:34.483Z,99311.22
2022-11-04T09:47:37.634Z,99314.50
2022-11-04T09:52:44.511Z,99328.19
2022-11-04T09:57:46.054Z,99345.09
2022-11-04T10:03:00.962Z,99344.72
2022-11-04T10:08:24.787Z,99346.59
2022-11-04T10:13:36.609Z,99358.25
2022-11-04T10:18:49.778Z,99365.16
2022-11-04T10:24:07.754Z,99365.63
2022-11-04T10:29:24.764Z,99381.38
2022-11-04T10:34:33.586Z,99378.09
2022-11-04T10:39:40.929Z,99386.19
2022-11-04T10:44:41.795Z,99390.22
2022-11-04T10:50:26.384Z,99402.50
2022-11-04T10:55:32.013Z,99401.84
2022-11-04T11:00:41.478Z,99413.34
2022-11-04T11:05:42.382Z,99410.75
2022-11-04T11:10:52.814Z,99416.81
2022-11-04T11:16:07.083Z,99400.47
2022-11-04T11:21:12.085Z,99394.38
2022-11-04T11:26:17.426Z,99398.91
2022-11-04T11:31:24.386Z,99391.97
2022-11-04T11:36:27.880Z,99402.44
2022-11-04T11:41:32.378Z,99393.63
2022-11-04T11:46:35.690Z,99394.72
2022-11-04T11:51:38.853Z,99375.84
2022-11-04T11:57:12.123Z,99389.94
2022-11-04T12:02:26.708Z,99398.00
2022-11-04T12:13:18.472Z,99390.16
2022-11-04T12:18:58.822Z,99394.34
2022-11-04T12:24:06.839Z,99385.81
2022-11-04T12:29:29.782Z,99399.41
2022-11-04T12:34:40.617Z,99392.94
2022-11-04T12:39:59.294Z,99392.97
2022-11-04T12:45:16.916Z,99380.72
2022-11-04T12:50:35.557Z,99370.97
2022-11-04T12:55:48.026Z,99369.41
2022-11-04T13:00:59.971Z,99378.88
2022-11-04T13:06:04.837Z,99359.34
2022-11-04T13:11:22.760Z,99360.94
2022-11-04T13:16:25.282Z,99366.28
2022-11-04T13:21:28.527Z,99372.41
2022-11-04T13:26:29.317Z,99376.66
2022-11-04T13:31:39.667Z,99381.22
2022-11-04T13:36:47.591Z,99385.53
2022-11-04T13:42:10.695Z,99394.16
2022-11-04T13:47:22.142Z,99397.75
2022-11-04T13:52:29.329Z,99402.91
2022-11-04T13:57:32.273Z,99408.03
2022-11-04T14:02:44.860Z,99409.09
2022-11-04T14:08:16.849Z,99411.19
2022-11-04T14:13:51.299Z,99404.25
2022-11-04T14:18:54.832Z,99415.47
2022-11-04T14:23:58.021Z,99426.88
2022-11-04T14:29:03.630Z,99437.84
2022-11-04T14:34:06.947Z,99430.16
2022-11-04T14:39:21.990Z,99441.84
2022-11-04T14:44:30.849Z,99447.28
2022-11-04T14:49:43.503Z,99455.94
2022-11-04T14:54:44.631Z,99452.25
2022-11-04T14:59:45.845Z,99465.53
2022-11-04T15:04:51.620Z,99469.03
2022-11-04T15:09:52.422Z,99479.75
2022-11-04T15:14:53.442Z,99475.72
2022-11-04T15:19:59.569Z,99489.09
2022-11-04T15:25:05.988Z,99495.59
2022-11-04T15:30:21.551Z,99492.59
2022-11-04T15:35:24.216Z,99503.13
2022-11-04T15:40:27.604Z,99498.03
2022-11-04T15:45:39.115Z,99505.63
2022-11-04T15:50:42.972Z,99511.75
2022-11-04T15:55:43.984Z,99516.88
2022-11-04T16:00:53.658Z,99520.16
2022-11-04T16:06:07.753Z,99530.47
2022-11-04T16:11:17.488Z,99529.53
2022-11-04T16:16:25.556Z,99527.00
2022-11-04T16:21:30.865Z,99540.09
2022-11-04T16:26:38.253Z,99541.84
2022-11-04T16:31:39.044Z,99533.06
2022-11-04T16:36:41.510Z,99549.56
2022-11-04T16:41:42.705Z,99553.94
2022-11-04T16:46:45.410Z,99559.91
2022-11-04T16:51:51.211Z,99569.44
2022-11-04T16:56:52.098Z,99575.47
2022-11-04T17:01:53.112Z,99574.66
2022-11-04T17:06:55.553Z,99586.97
2022-11-04T17:11:56.385Z,99586.78
2022-11-04T17:17:00.138Z,99586.88
2022-11-04T17:22:05.248Z,99588.63
2022-11-04T17:27:06.499Z,99589.50
2022-11-04T17:32:07.545Z,99598.22
2022-11-04T17:37:11.990Z,99602.50
2022-11-04T17:42:30.440Z,99600.03
2022-11-04T17:47:36.469Z,99612.91
2022-11-04T17:52:40.054Z,99610.41
2022-11-04T17:57:40.931Z,99616.25
2022-11-04T18:02:42.984Z,99618.34
2022-11-04T18:07:48.227Z,99613.25
2022-11-04T18:12:49.463Z,99612.50
2022-11-04T18:17:52.626Z,99616.13
2022-11-04T18:22:54.837Z,99622.19
2022-11-04T18:27:55.636Z,99623.91
2022-11-04T18:32:58.553Z,99616.19
2022-11-04T18:38:00.734Z,99613.44
2022-11-04T18:43:08.500Z,99618.66
2022-11-04T18:48:10.169Z,99624.66
2022-11-04T18:53:13.065Z,99613.56
2022-11-04T18:58:13.909Z,99610.84
2022-11-04T19:03:14.685Z,99612.53
2022-11-04T19:08:16.890Z,99604.84
2022-11-04T19:13:20.606Z,99604.84
2022-11-04T19:18:21.507Z,99617.84
2022-11-04T19:23:23.766Z,99625.69
2022-11-04T19:28:40.387Z,99624.63
2022-11-04T19:33:45.589Z,99624.72
2022-11-04T19:38:48.319Z,99637.78
2022-11-04T19:43:49.241Z,99643.00
2022-11-04T19:48:50.035Z,99642.03
2022-11-04T19:53:52.256Z,99649.78
2022-11-04T19:58:53.179Z,99650.69
2022-11-04T20:03:54.157Z,99662.69
2022-11-04T20:08:56.312Z,99673.00
2022-11-04T20:13:57.297Z,99677.44
2022-11-04T20:19:01.416Z,99686.03
2022-11-04T20:24:06.512Z,99693.78
2022-11-04T20:29:08.177Z,99703.25
2022-11-04T20:34:12.266Z,99699.75
2022-11-04T20:39:17.122Z,99712.09
2022-11-04T20:44:18.053Z,99712.91
2022-11-04T20:49:18.859Z,99725.72
2022-11-04T20:54:21.631Z,99723.13
2022-11-04T20:59:22.496Z,99725.81
2022-11-04T21:04:23.401Z,99729.38
2022-11-04T21:09:25.671Z,99737.13
2022-11-04T21:14:26.495Z,99742.38
2022-11-04T21:19:27.286Z,99742.31
2022-11-04T21:24:29.489Z,99747.59
2022-11-04T21:29:30.315Z,99746.81
2022-11-04T21:34:31.094Z,99755.59
2022-11-04T21:39:33.219Z,99756.38
2022-11-04T21:44:34.048Z,99764.19
2022-11-04T21:49:34.964Z,99769.44
2022-11-04T21:54:37.456Z,99765.03
2022-11-04T21:59:38.262Z,99766.88
2022-11-04T22:04:39.061Z,99773.72
2022-11-04T22:09:41.232Z,99767.72
2022-11-04T22:14:42.117Z,99785.84
2022-11-04T22:19:42.909Z,99781.56
2022-11-04T22:25:03.023Z,99781.44
2022-11-04T22:30:03.976Z,99788.47
2022-11-04T22:35:05.255Z,99793.69
2022-11-04T22:40:09.191Z,99792.06
2022-11-04T22:45:16.347Z,99794.72
2022-11-04T22:50:17.892Z,99794.75
2022-11-04T22:55:20.012Z,99792.16
2022-11-04T23:00:22.484Z,99800.91
2022-11-04T23:05:23.266Z,99795.66
2022-11-04T23:10:42.776Z,99800.84
2022-11-04T23:16:00.920Z,99799.13
2022-11-04T23:21:19.520Z,99801.75
2022-11-04T23:26:26.561Z,99801.75
2022-11-04T23:31:28.573Z,99794.81
2022-11-04T23:36:47.011Z,99805.22
2022-11-04T23:42:06.488Z,99806.06
2022-11-04T23:47:24.999Z,99812.16
2022-11-04T23:52:43.397Z,99825.22
2022-11-04T23:58:03.181Z,99837.34
